PWSweather.com
Personal Weather Stations
Station Observations
CWOPDW0920
Cole Harbour, Halifax, NS

Cole HarbourHalifax, NS

Lat: 44.679792, Lon: -63.465421

Elevation: 112

Station Type: WMR968

http://www.HRMWeather.com

High Low Average
Temperature 59.3°F15.2°C 28.5°F-1.9°C 44.1°F6.7°C
Dew Point 47.9°F8.8°C 26.7°F-2.9°C 37.3°F2.9°C
Winds 14.0 mph 22.5 kmh Calm Calm 6.0 mph W9.7 kmh W
Wind Gusts 21.0 mph33.8 kmh -- 8.0 mph12.9 kmh
Humidity 94% 66% 79%
Pressure 30.09 in1019.0 mb 30.03 in1016.9 mb -
Precipitation 0.00 in0.0 mm - -
Hour Temp Dew Point Humidity Winds Wind Gusts Pressure Precip Precip Rate Daily Precip Total
12:00 AM 29.5°F-1.4°C 27.4°F-2.6°C 92% Calm Calm 5.0 mph8.0 kmh 30.06 in1017.9 mb 0.00 in0.0 mm 0.00 in/hr0.0 mm/hr 0.00 in0.0 mm
01:00 AM 29.5°F-1.4°C 27.4°F-2.6°C 92% 6.0 mph N9.7 kmh N 7.0 mph11.3 kmh 30.06 in1017.9 mb 0.00 in0.0 mm 0.00 in/hr0.0 mm/hr 0.00 in0.0 mm
02:00 AM 28.9°F-1.7°C 27.2°F-2.7°C 93% Calm Calm -- 30.06 in1017.9 mb 0.00 in0.0 mm 0.00 in/hr0.0 mm/hr 0.00 in0.0 mm
03:00 AM 28.5°F-1.9°C 26.7°F-2.9°C 93% Calm Calm -- 30.06 in1017.9 mb 0.00 in0.0 mm 0.00 in/hr0.0 mm/hr 0.00 in0.0 mm
04:00 AM 29.7°F-1.3°C 28.2°F-2.1°C 94% Calm Calm 5.0 mph8.0 kmh 30.03 in1016.9 mb 0.00 in0.0 mm 0.00 in/hr0.0 mm/hr 0.00 in0.0 mm
05:00 AM 28.8°F-1.8°C 27.3°F-2.6°C 94% Calm Calm -- 30.03 in1016.9 mb 0.00 in0.0 mm 0.00 in/hr0.0 mm/hr 0.00 in0.0 mm
06:00 AM 30.0°F-1.1°C 28.5°F-1.9°C 94% Calm Calm -- 30.06 in1017.9 mb 0.00 in0.0 mm 0.00 in/hr0.0 mm/hr 0.00 in0.0 mm
07:00 AM 39.6°F4.2°C 34.8°F1.6°C 83% Calm Calm -- 30.09 in1019.0 mb 0.00 in0.0 mm 0.00 in/hr0.0 mm/hr 0.00 in0.0 mm
08:00 AM 45.9°F7.7°C 39.1°F3.9°C 77% 5.0 mph SSE8.0 kmh SSE 7.0 mph11.3 kmh 30.06 in1017.9 mb 0.00 in0.0 mm 0.00 in/hr0.0 mm/hr 0.00 in0.0 mm
11:00 AM 56.7°F13.7°C 45.5°F7.5°C 66% 12.0 mph SW19.3 kmh SW 14.0 mph22.5 kmh 30.06 in1017.9 mb 0.00 in0.0 mm 0.00 in/hr0.0 mm/hr 0.00 in0.0 mm
12:00 PM 59.3°F15.2°C 47.9°F8.8°C 66% 14.0 mph S22.5 kmh S 21.0 mph33.8 kmh 30.06 in1017.9 mb 0.00 in0.0 mm 0.00 in/hr0.0 mm/hr 0.00 in0.0 mm
01:00 PM 58.7°F14.8°C 47.4°F8.6°C 66% 14.0 mph S22.5 kmh S 18.0 mph29.0 kmh 30.06 in1017.9 mb 0.00 in0.0 mm 0.00 in/hr0.0 mm/hr 0.00 in0.0 mm
02:00 PM 58.9°F14.9°C 47.6°F8.7°C 66% 12.0 mph SW19.3 kmh SW 14.0 mph22.5 kmh 30.06 in1017.9 mb 0.00 in0.0 mm 0.00 in/hr0.0 mm/hr 0.00 in0.0 mm
03:00 PM 57.7°F14.3°C 46.5°F8.1°C 66% 14.0 mph SW22.5 kmh SW 18.0 mph29.0 kmh 30.06 in1017.9 mb 0.00 in0.0 mm 0.00 in/hr0.0 mm/hr 0.00 in0.0 mm
04:00 PM 58.3°F14.6°C 47.0°F8.3°C 66% 8.0 mph SW12.9 kmh SW 10.0 mph16.1 kmh 30.06 in1017.9 mb 0.00 in0.0 mm 0.00 in/hr0.0 mm/hr 0.00 in0.0 mm
05:00 PM 55.1°F12.8°C 44.8°F7.1°C 68% 12.0 mph SW19.3 kmh SW 17.0 mph27.4 kmh 30.06 in1017.9 mb 0.00 in0.0 mm 0.00 in/hr0.0 mm/hr 0.00 in0.0 mm
06:00 PM 51.5°F10.8°C 41.7°F5.4°C 69% 8.0 mph S12.9 kmh S 9.0 mph14.5 kmh 30.03 in1016.9 mb 0.00 in0.0 mm 0.00 in/hr0.0 mm/hr 0.00 in0.0 mm
07:00 PM 46.6°F8.1°C 37.0°F2.8°C 69% Calm Calm 7.0 mph11.3 kmh 30.06 in1017.9 mb 0.00 in0.0 mm 0.00 in/hr0.0 mm/hr 0.00 in0.0 mm
08:00 PM 44.1°F6.7°C 35.3°F1.8°C 71% 3.0 mph SSW4.8 kmh SSW 6.0 mph9.7 kmh 30.06 in1017.9 mb 0.00 in0.0 mm 0.00 in/hr0.0 mm/hr 0.00 in0.0 mm
09:00 PM 43.7°F6.5°C 36.3°F2.4°C 75% 6.0 mph SSW9.7 kmh SSW 9.0 mph14.5 kmh 30.06 in1017.9 mb 0.00 in0.0 mm 0.00 in/hr0.0 mm/hr 0.00 in0.0 mm
10:00 PM 43.2°F6.2°C 36.4°F2.4°C 77% 3.0 mph SSW4.8 kmh SSW 5.0 mph8.0 kmh 30.06 in1017.9 mb 0.00 in0.0 mm 0.00 in/hr0.0 mm/hr 0.00 in0.0 mm
11:00 PM 41.9°F5.5°C 36.2°F2.3°C 80% Calm Calm -- 30.06 in1017.9 mb 0.00 in0.0 mm 0.00 in/hr0.0 mm/hr 0.00 in0.0 mm